sensor_id;sensor_type;location;lat;lon;timestamp;pressure;altitude;pressure_sealevel;temperature;humidity
1926;BME280;964;42.606;23.588;2023-02-11T00:00:12;96210.16;;;7.23;31.60
1926;BME280;964;42.606;23.588;2023-02-11T00:02:39;96207.72;;;7.46;31.26
1926;BME280;964;42.606;23.588;2023-02-11T00:05:08;96198.38;;;7.53;31.09
1926;BME280;964;42.606;23.588;2023-02-11T00:07:35;96211.50;;;7.39;31.15
1926;BME280;964;42.606;23.588;2023-02-11T00:10:02;96204.88;;;7.42;31.29
1926;BME280;964;42.606;23.588;2023-02-11T00:12:32;96203.75;;;7.62;30.63
1926;BME280;964;42.606;23.588;2023-02-11T00:14:58;96199.56;;;7.28;31.21
1926;BME280;964;42.606;23.588;2023-02-11T00:17:25;96196.41;;;6.89;32.13
1926;BME280;964;42.606;23.588;2023-02-11T00:19:52;96197.72;;;7.10;32.18
1926;BME280;964;42.606;23.588;2023-02-11T00:22:20;96197.88;;;7.32;31.45
1926;BME280;964;42.606;23.588;2023-02-11T00:24:47;96194.03;;;7.44;31.58
1926;BME280;964;42.606;23.588;2023-02-11T00:27:13;96196.00;;;7.19;31.28
1926;BME280;964;42.606;23.588;2023-02-11T00:29:40;96199.84;;;7.08;31.63
1926;BME280;964;42.606;23.588;2023-02-11T00:32:08;96203.25;;;6.90;31.69
1926;BME280;964;42.606;23.588;2023-02-11T00:34:36;96201.69;;;6.89;32.06
1926;BME280;964;42.606;23.588;2023-02-11T00:37:03;96201.91;;;7.11;31.74
1926;BME280;964;42.606;23.588;2023-02-11T00:39:31;96206.47;;;6.87;32.00
1926;BME280;964;42.606;23.588;2023-02-11T00:41:58;96198.00;;;6.90;31.99
1926;BME280;964;42.606;23.588;2023-02-11T00:44:25;96204.06;;;7.09;31.28
1926;BME280;964;42.606;23.588;2023-02-11T00:46:52;96207.25;;;6.87;31.64
1926;BME280;964;42.606;23.588;2023-02-11T00:49:18;96202.00;;;7.06;31.68
1926;BME280;964;42.606;23.588;2023-02-11T00:51:45;96197.41;;;6.93;31.16
1926;BME280;964;42.606;23.588;2023-02-11T00:54:12;96196.56;;;7.16;30.89
1926;BME280;964;42.606;23.588;2023-02-11T00:56:40;96192.13;;;7.30;31.00
1926;BME280;964;42.606;23.588;2023-02-11T00:59:06;96193.63;;;7.18;31.18
1926;BME280;964;42.606;23.588;2023-02-11T01:01:33;96193.28;;;6.87;31.64
1926;BME280;964;42.606;23.588;2023-02-11T01:04:00;96188.56;;;6.47;32.47
1926;BME280;964;42.606;23.588;2023-02-11T01:06:26;96185.16;;;6.65;31.66
1926;BME280;964;42.606;23.588;2023-02-11T01:08:53;96196.75;;;6.21;32.64
1926;BME280;964;42.606;23.588;2023-02-11T01:11:20;96197.06;;;6.38;32.69
1926;BME280;964;42.606;23.588;2023-02-11T01:13:49;96187.53;;;6.43;32.80
1926;BME280;964;42.606;23.588;2023-02-11T01:16:17;96188.16;;;6.34;32.67
1926;BME280;964;42.606;23.588;2023-02-11T01:18:44;96189.16;;;5.91;33.34
1926;BME280;964;42.606;23.588;2023-02-11T01:21:11;96186.19;;;5.69;33.91
1926;BME280;964;42.606;23.588;2023-02-11T01:23:38;96180.00;;;5.55;34.32
1926;BME280;964;42.606;23.588;2023-02-11T01:26:04;96180.28;;;6.11;33.52
1926;BME280;964;42.606;23.588;2023-02-11T01:28:31;96177.00;;;6.43;33.21
1926;BME280;964;42.606;23.588;2023-02-11T01:31:00;96181.28;;;6.38;32.65
1926;BME280;964;42.606;23.588;2023-02-11T01:33:27;96171.63;;;6.53;32.52
1926;BME280;964;42.606;23.588;2023-02-11T01:35:54;96183.06;;;6.43;32.59
1926;BME280;964;42.606;23.588;2023-02-11T01:38:23;96188.53;;;5.41;34.05
1926;BME280;964;42.606;23.588;2023-02-11T01:40:53;96174.69;;;6.17;32.99
1926;BME280;964;42.606;23.588;2023-02-11T01:43:21;96179.03;;;6.51;33.24
1926;BME280;964;42.606;23.588;2023-02-11T01:46:11;96180.47;;;6.38;32.56
1926;BME280;964;42.606;23.588;2023-02-11T01:48:41;96176.41;;;6.03;32.95
1926;BME280;964;42.606;23.588;2023-02-11T01:51:12;96176.69;;;6.25;32.55
1926;BME280;964;42.606;23.588;2023-02-11T01:53:40;96177.63;;;6.34;32.10
1926;BME280;964;42.606;23.588;2023-02-11T01:56:25;96183.69;;;6.35;32.38
1926;BME280;964;42.606;23.588;2023-02-11T01:59:14;96178.16;;;5.89;33.06
1926;BME280;964;42.606;23.588;2023-02-11T02:01:46;96173.69;;;5.89;33.57
1926;BME280;964;42.606;23.588;2023-02-11T02:04:17;96173.66;;;6.13;33.35
1926;BME280;964;42.606;23.588;2023-02-11T02:06:48;96171.13;;;6.08;33.44
1926;BME280;964;42.606;23.588;2023-02-11T02:09:20;96172.56;;;5.96;33.20
1926;BME280;964;42.606;23.588;2023-02-11T02:11:49;96168.31;;;5.71;33.35
1926;BME280;964;42.606;23.588;2023-02-11T02:14:16;96165.94;;;5.98;33.05
1926;BME280;964;42.606;23.588;2023-02-11T02:16:44;96169.75;;;5.87;33.71
1926;BME280;964;42.606;23.588;2023-02-11T02:22:39;96169.34;;;5.70;33.45
1926;BME280;964;42.606;23.588;2023-02-11T02:25:27;96179.66;;;5.32;34.18
1926;BME280;964;42.606;23.588;2023-02-11T02:28:10;96177.00;;;5.37;33.75
1926;BME280;964;42.606;23.588;2023-02-11T02:31:08;96176.69;;;5.44;33.59
1926;BME280;964;42.606;23.588;2023-02-11T02:33:44;96170.22;;;4.98;34.17
1926;BME280;964;42.606;23.588;2023-02-11T02:36:21;96172.69;;;5.18;34.11
1926;BME280;964;42.606;23.588;2023-02-11T02:38:52;96168.53;;;5.46;34.22
1926;BME280;964;42.606;23.588;2023-02-11T02:41:22;96168.91;;;5.63;34.23
1926;BME280;964;42.606;23.588;2023-02-11T02:43:52;96172.44;;;5.48;33.71
1926;BME280;964;42.606;23.588;2023-02-11T02:46:21;96168.19;;;5.81;33.18
1926;BME280;964;42.606;23.588;2023-02-11T03:22:55;96139.53;;;9.33;31.82
1926;BME280;964;42.606;23.588;2023-02-11T03:25:28;96138.91;;;10.20;28.77
1926;BME280;964;42.606;23.588;2023-02-11T03:28:02;96139.78;;;10.07;27.75
1926;BME280;964;42.606;23.588;2023-02-11T03:30:33;96145.00;;;9.90;27.72
1926;BME280;964;42.606;23.588;2023-02-11T03:33:06;96146.47;;;9.74;27.93
1926;BME280;964;42.606;23.588;2023-02-11T03:35:39;96146.38;;;9.88;27.65
1926;BME280;964;42.606;23.588;2023-02-11T03:38:11;96148.59;;;8.97;29.29
1926;BME280;964;42.606;23.588;2023-02-11T03:40:40;96146.91;;;10.29;27.36
1926;BME280;964;42.606;23.588;2023-02-11T03:43:12;96151.41;;;10.28;26.95
1926;BME280;964;42.606;23.588;2023-02-11T03:45:42;96152.34;;;10.32;26.56
1926;BME280;964;42.606;23.588;2023-02-11T03:48:13;96144.72;;;10.00;26.86
1926;BME280;964;42.606;23.588;2023-02-11T03:50:44;96151.84;;;9.91;27.29
1926;BME280;964;42.606;23.588;2023-02-11T03:53:13;96147.19;;;10.93;26.30
1926;BME280;964;42.606;23.588;2023-02-11T03:55:42;96138.13;;;11.02;26.02
1926;BME280;964;42.606;23.588;2023-02-11T03:58:09;96142.66;;;10.85;26.29
1926;BME280;964;42.606;23.588;2023-02-11T04:00:38;96137.03;;;11.03;26.29
1926;BME280;964;42.606;23.588;2023-02-11T04:03:05;96146.22;;;10.97;26.30
1926;BME280;964;42.606;23.588;2023-02-11T04:05:32;96139.38;;;11.13;25.84
1926;BME280;964;42.606;23.588;2023-02-11T04:07:59;96129.84;;;10.78;26.07
1926;BME280;964;42.606;23.588;2023-02-11T04:10:27;96130.63;;;10.87;25.88
1926;BME280;964;42.606;23.588;2023-02-11T04:12:54;96135.44;;;10.76;25.84
1926;BME280;964;42.606;23.588;2023-02-11T04:15:21;96134.31;;;10.60;25.94
1926;BME280;964;42.606;23.588;2023-02-11T04:17:48;96137.53;;;10.23;26.43
1926;BME280;964;42.606;23.588;2023-02-11T04:20:15;96139.19;;;10.75;26.03
1926;BME280;964;42.606;23.588;2023-02-11T04:22:41;96142.66;;;10.85;25.71
1926;BME280;964;42.606;23.588;2023-02-11T04:25:09;96146.22;;;10.97;25.80
1926;BME280;964;42.606;23.588;2023-02-11T04:27:37;96140.16;;;11.14;25.59
1926;BME280;964;42.606;23.588;2023-02-11T04:30:05;96143.69;;;10.75;25.93
1926;BME280;964;42.606;23.588;2023-02-11T04:32:32;96137.81;;;10.78;25.61
1926;BME280;964;42.606;23.588;2023-02-11T04:34:59;96148.72;;;10.85;25.42
1926;BME280;964;42.606;23.588;2023-02-11T04:37:26;96146.97;;;10.55;25.74
1926;BME280;964;42.606;23.588;2023-02-11T04:39:53;96138.94;;;9.98;25.94
1926;BME280;964;42.606;23.588;2023-02-11T04:42:19;96141.34;;;10.08;26.13
1926;BME280;964;42.606;23.588;2023-02-11T04:44:47;96137.81;;;10.21;25.62
1926;BME280;964;42.606;23.588;2023-02-11T04:47:14;96128.34;;;10.29;26.14
1926;BME280;964;42.606;23.588;2023-02-11T04:49:41;96136.50;;;9.71;26.58
1926;BME280;964;42.606;23.588;2023-02-11T04:52:07;96131.66;;;9.64;26.43
1926;BME280;964;42.606;23.588;2023-02-11T04:54:35;96124.88;;;9.50;26.43
1926;BME280;964;42.606;23.588;2023-02-11T04:57:02;96129.09;;;9.51;27.01
1926;BME280;964;42.606;23.588;2023-02-11T04:59:29;96135.91;;;9.52;26.89
1926;BME280;964;42.606;23.588;2023-02-11T05:01:57;96133.25;;;10.13;26.06
1926;BME280;964;42.606;23.588;2023-02-11T05:04:24;96125.84;;;9.54;26.75
1926;BME280;964;42.606;23.588;2023-02-11T05:06:50;96130.28;;;9.22;26.42
1926;BME280;964;42.606;23.588;2023-02-11T05:09:17;96123.06;;;9.36;26.00
1926;BME280;964;42.606;23.588;2023-02-11T05:11:44;96130.59;;;8.99;26.39
1926;BME280;964;42.606;23.588;2023-02-11T05:14:10;96126.31;;;8.89;26.94
1926;BME280;964;42.606;23.588;2023-02-11T05:16:37;96129.69;;;9.25;27.08
1926;BME280;964;42.606;23.588;2023-02-11T05:19:05;96125.84;;;9.31;26.54
1926;BME280;964;42.606;23.588;2023-02-11T05:21:32;96135.03;;;9.12;26.18
1926;BME280;964;42.606;23.588;2023-02-11T05:23:59;96131.53;;;8.45;28.15
1926;BME280;964;42.606;23.588;2023-02-11T05:26:25;96134.16;;;8.17;27.97
1926;BME280;964;42.606;23.588;2023-02-11T05:28:52;96128.03;;;8.71;27.92
1926;BME280;964;42.606;23.588;2023-02-11T05:31:19;96127.53;;;9.05;26.82
1926;BME280;964;42.606;23.588;2023-02-11T05:33:45;96123.44;;;8.77;27.29
1926;BME280;964;42.606;23.588;2023-02-11T05:39:22;96128.59;;;9.04;26.81
1926;BME280;964;42.606;23.588;2023-02-11T05:41:49;96129.44;;;8.42;28.38
1926;BME280;964;42.606;23.588;2023-02-11T05:44:15;96135.19;;;8.93;27.70
1926;BME280;964;42.606;23.588;2023-02-11T05:46:42;96135.63;;;8.51;28.02
1926;BME280;964;42.606;23.588;2023-02-11T05:49:09;96134.41;;;8.70;28.38
1926;BME280;964;42.606;23.588;2023-02-11T05:51:37;96130.78;;;9.02;27.19
1926;BME280;964;42.606;23.588;2023-02-11T05:54:04;96125.72;;;9.36;27.81
1926;BME280;964;42.606;23.588;2023-02-11T05:56:30;96129.66;;;10.09;26.09
1926;BME280;964;42.606;23.588;2023-02-11T05:58:57;96137.09;;;10.29;26.70
1926;BME280;964;42.606;23.588;2023-02-11T06:01:24;96124.63;;;10.39;25.69
1926;BME280;964;42.606;23.588;2023-02-11T06:03:51;96133.97;;;10.36;26.22
1926;BME280;964;42.606;23.588;2023-02-11T06:06:18;96135.63;;;10.80;26.13
1926;BME280;964;42.606;23.588;2023-02-11T06:08:46;96126.84;;;12.03;25.58
1926;BME280;964;42.606;23.588;2023-02-11T06:11:13;96119.16;;;13.64;24.12
1926;BME280;964;42.606;23.588;2023-02-11T06:13:40;96101.47;;;15.60;22.89
1926;BME280;964;42.606;23.588;2023-02-11T06:16:07;96105.00;;;16.58;21.23
1926;BME280;964;42.606;23.588;2023-02-11T06:18:34;96101.84;;;15.90;21.30
1926;BME280;964;42.606;23.588;2023-02-11T06:21:00;96093.09;;;17.10;20.89
1926;BME280;964;42.606;23.588;2023-02-11T06:23:27;96089.44;;;19.03;19.02
1926;BME280;964;42.606;23.588;2023-02-11T06:26:00;96090.75;;;18.87;18.32
1926;BME280;964;42.606;23.588;2023-02-11T06:28:27;96081.59;;;20.39;17.68
1926;BME280;964;42.606;23.588;2023-02-11T06:30:55;96090.84;;;20.45;17.35
1926;BME280;964;42.606;23.588;2023-02-11T06:33:22;96082.81;;;21.14;16.78
1926;BME280;964;42.606;23.588;2023-02-11T06:35:49;96084.56;;;21.78;16.24
1926;BME280;964;42.606;23.588;2023-02-11T06:38:16;96074.53;;;22.53;15.37
1926;BME280;964;42.606;23.588;2023-02-11T06:40:46;96069.72;;;24.49;15.41
1926;BME280;964;42.606;23.588;2023-02-11T06:43:14;96066.75;;;24.77;14.74
1926;BME280;964;42.606;23.588;2023-02-11T06:45:41;96051.66;;;25.40;14.25
1926;BME280;964;42.606;23.588;2023-02-11T06:48:07;96074.63;;;25.02;14.31
1926;BME280;964;42.606;23.588;2023-02-11T06:50:34;96062.53;;;25.70;13.89
1926;BME280;964;42.606;23.588;2023-02-11T06:53:01;96062.72;;;25.26;14.01
1926;BME280;964;42.606;23.588;2023-02-11T06:55:28;96068.09;;;25.29;13.84
1926;BME280;964;42.606;23.588;2023-02-11T06:57:54;96072.34;;;25.64;13.77
1926;BME280;964;42.606;23.588;2023-02-11T07:00:22;96071.91;;;26.19;13.49
1926;BME280;964;42.606;23.588;2023-02-11T07:02:49;96063.00;;;26.19;13.45
1926;BME280;964;42.606;23.588;2023-02-11T07:05:16;96070.84;;;25.87;13.56
1926;BME280;964;42.606;23.588;2023-02-11T07:07:43;96067.72;;;26.61;13.21
1926;BME280;964;42.606;23.588;2023-02-11T07:10:09;96063.88;;;26.59;12.91
1926;BME280;964;42.606;23.588;2023-02-11T07:12:36;96067.72;;;26.61;13.37
1926;BME280;964;42.606;23.588;2023-02-11T07:15:03;96067.38;;;26.79;13.26
1926;BME280;964;42.606;23.588;2023-02-11T07:17:33;96063.53;;;26.33;13.46
1926;BME280;964;42.606;23.588;2023-02-11T07:19:59;96067.50;;;26.95;12.90
1926;BME280;964;42.606;23.588;2023-02-11T07:22:26;96066.59;;;27.61;12.96
1926;BME280;964;42.606;23.588;2023-02-11T07:24:53;96070.16;;;27.38;12.65
1926;BME280;964;42.606;23.588;2023-02-11T07:27:19;96063.47;;;27.95;12.57
1926;BME280;964;42.606;23.588;2023-02-11T07:29:46;96057.03;;;28.05;12.91
1926;BME280;964;42.606;23.588;2023-02-11T07:32:13;96062.94;;;27.84;12.76
1926;BME280;964;42.606;23.588;2023-02-11T07:34:41;96058.69;;;28.80;12.31
1926;BME280;964;42.606;23.588;2023-02-11T07:37:07;96061.34;;;28.67;12.42
1926;BME280;964;42.606;23.588;2023-02-11T07:39:35;96058.41;;;28.45;12.46
1926;BME280;964;42.606;23.588;2023-02-11T07:42:02;96053.41;;;28.56;12.51
1926;BME280;964;42.606;23.588;2023-02-11T07:44:29;96047.09;;;28.31;12.61
1926;BME280;964;42.606;23.588;2023-02-11T07:46:57;96041.28;;;28.45;13.03
1926;BME280;964;42.606;23.588;2023-02-11T07:49:24;96041.50;;;27.86;13.15
1926;BME280;964;42.606;23.588;2023-02-11T07:51:52;96048.47;;;28.67;12.75
1926;BME280;964;42.606;23.588;2023-02-11T07:54:19;96040.22;;;29.41;12.43
1926;BME280;964;42.606;23.588;2023-02-11T07:56:45;96035.19;;;29.27;12.65
1926;BME280;964;42.606;23.588;2023-02-11T07:59:12;96036.56;;;29.86;12.19
1926;BME280;964;42.606;23.588;2023-02-11T08:01:39;96036.78;;;29.25;12.39
1926;BME280;964;42.606;23.588;2023-02-11T08:04:05;96043.19;;;28.60;12.89
1926;BME280;964;42.606;23.588;2023-02-11T08:06:34;96038.34;;;28.03;13.56
1926;BME280;964;42.606;23.588;2023-02-11T08:09:05;96035.97;;;28.99;12.86
1926;BME280;964;42.606;23.588;2023-02-11T08:11:33;96028.41;;;29.44;12.82
1926;BME280;964;42.606;23.588;2023-02-11T08:14:00;96031.03;;;29.35;12.67
1926;BME280;964;42.606;23.588;2023-02-11T08:16:28;96024.38;;;29.36;12.45
1926;BME280;964;42.606;23.588;2023-02-11T08:18:56;96028.56;;;29.53;12.75
1926;BME280;964;42.606;23.588;2023-02-11T08:21:24;96032.66;;;28.46;13.16
1926;BME280;964;42.606;23.588;2023-02-11T08:23:51;96038.25;;;27.74;13.42
1926;BME280;964;42.606;23.588;2023-02-11T08:26:20;96042.78;;;28.46;13.25
1926;BME280;964;42.606;23.588;2023-02-11T08:28:49;96050.94;;;28.62;13.16
1926;BME280;964;42.606;23.588;2023-02-11T08:31:17;96032.47;;;29.11;12.94
1926;BME280;964;42.606;23.588;2023-02-11T08:33:45;96032.16;;;29.76;12.63
1926;BME280;964;42.606;23.588;2023-02-11T08:36:14;96024.69;;;30.27;12.44
1926;BME280;964;42.606;23.588;2023-02-11T08:38:42;96029.09;;;29.48;12.60
1926;BME280;964;42.606;23.588;2023-02-11T08:41:09;96039.88;;;27.88;13.37
1926;BME280;964;42.606;23.588;2023-02-11T08:43:37;96042.91;;;27.38;14.09
1926;BME280;964;42.606;23.588;2023-02-11T08:46:06;96042.28;;;28.35;13.31
1926;BME280;964;42.606;23.588;2023-02-11T08:48:33;96046.91;;;27.53;13.59
1926;BME280;964;42.606;23.588;2023-02-11T08:51:05;96048.78;;;26.77;14.49
1926;BME280;964;42.606;23.588;2023-02-11T08:53:32;96046.44;;;28.07;13.12
1926;BME280;964;42.606;23.588;2023-02-11T08:55:59;96039.91;;;28.37;13.03
1926;BME280;964;42.606;23.588;2023-02-11T08:58:25;96031.34;;;29.37;13.08
1926;BME280;964;42.606;23.588;2023-02-11T09:00:53;96039.47;;;28.38;13.48
1926;BME280;964;42.606;23.588;2023-02-11T09:03:20;96037.56;;;28.67;13.14
1926;BME280;964;42.606;23.588;2023-02-11T09:05:48;96033.16;;;29.15;12.97
1926;BME280;964;42.606;23.588;2023-02-11T12:45:52;95729.19;;;20.02;17.91
1926;BME280;964;42.606;23.588;2023-02-11T12:48:34;95725.47;;;21.13;17.43
1926;BME280;964;42.606;23.588;2023-02-11T12:51:09;95713.97;;;22.13;16.56
1926;BME280;964;42.606;23.588;2023-02-11T12:54:07;95721.47;;;21.70;16.99
1926;BME280;964;42.606;23.588;2023-02-11T12:56:41;95722.94;;;21.85;16.97
1926;BME280;964;42.606;23.588;2023-02-11T12:59:16;95721.25;;;22.16;15.72
1926;BME280;964;42.606;23.588;2023-02-11T13:01:48;95722.47;;;22.08;16.13
1926;BME280;964;42.606;23.588;2023-02-11T13:04:20;95704.16;;;22.37;15.86
1926;BME280;964;42.606;23.588;2023-02-11T13:06:51;95704.78;;;23.07;16.00
1926;BME280;964;42.606;23.588;2023-02-11T13:09:24;95686.88;;;24.71;15.29
1926;BME280;964;42.606;23.588;2023-02-11T13:11:54;95699.88;;;23.69;15.16
1926;BME280;964;42.606;23.588;2023-02-11T13:14:26;95692.22;;;23.64;15.14
1926;BME280;964;42.606;23.588;2023-02-11T13:16:54;95678.53;;;25.09;14.13
1926;BME280;964;42.606;23.588;2023-02-11T13:19:25;95689.31;;;24.09;14.68
1926;BME280;964;42.606;23.588;2023-02-11T13:22:01;95699.75;;;23.09;15.62
1926;BME280;964;42.606;23.588;2023-02-11T13:24:34;95693.31;;;24.01;15.09
1926;BME280;964;42.606;23.588;2023-02-11T13:27:09;95679.53;;;25.97;13.69
1926;BME280;964;42.606;23.588;2023-02-11T13:33:02;95679.28;;;25.52;14.23
1926;BME280;964;42.606;23.588;2023-02-11T13:35:31;95683.22;;;23.37;15.47
1926;BME280;964;42.606;23.588;2023-02-11T13:37:59;95679.78;;;24.01;14.99
1926;BME280;964;42.606;23.588;2023-02-11T13:40:29;95679.31;;;23.45;15.19
1926;BME280;964;42.606;23.588;2023-02-11T13:42:59;95683.66;;;22.94;16.00
1926;BME280;964;42.606;23.588;2023-02-11T13:45:31;95674.84;;;23.28;15.71
1926;BME280;964;42.606;23.588;2023-02-11T13:48:01;95690.06;;;20.47;17.18
1926;BME280;964;42.606;23.588;2023-02-11T13:50:31;95694.13;;;19.74;17.49
1926;BME280;964;42.606;23.588;2023-02-11T13:53:02;95691.97;;;18.70;18.93
1926;BME280;964;42.606;23.588;2023-02-11T13:55:29;95704.44;;;17.11;20.38
1926;BME280;964;42.606;23.588;2023-02-11T13:58:15;95709.22;;;16.50;21.23
1926;BME280;964;42.606;23.588;2023-02-11T14:00:46;95700.41;;;15.46;20.51
1926;BME280;964;42.606;23.588;2023-02-11T14:03:31;95697.28;;;15.60;21.05
1926;BME280;964;42.606;23.588;2023-02-11T14:06:20;95694.19;;;15.58;20.98
1926;BME280;964;42.606;23.588;2023-02-11T14:09:32;95692.97;;;15.01;20.60
1926;BME280;964;42.606;23.588;2023-02-11T14:15:24;95679.84;;;15.66;20.39
1926;BME280;964;42.606;23.588;2023-02-11T14:17:53;95682.47;;;15.62;21.38
1926;BME280;964;42.606;23.588;2023-02-11T14:20:34;95680.66;;;15.32;21.58
1926;BME280;964;42.606;23.588;2023-02-11T14:23:02;95683.47;;;15.39;21.59
1926;BME280;964;42.606;23.588;2023-02-11T14:25:30;95684.06;;;16.09;20.68
1926;BME280;964;42.606;23.588;2023-02-11T14:28:00;95670.84;;;17.17;19.63
1926;BME280;964;42.606;23.588;2023-02-11T14:30:45;95657.28;;;18.07;19.04
1926;BME280;964;42.606;23.588;2023-02-11T14:36:19;95656.13;;;18.48;18.33
1926;BME280;964;42.606;23.588;2023-02-11T14:39:00;95660.53;;;16.41;19.68
1926;BME280;964;42.606;23.588;2023-02-11T14:41:32;95672.97;;;15.65;20.42
1926;BME280;964;42.606;23.588;2023-02-11T14:44:05;95683.00;;;14.98;21.78
1926;BME280;964;42.606;23.588;2023-02-11T14:46:35;95685.84;;;14.55;21.58
1926;BME280;964;42.606;23.588;2023-02-11T14:49:04;95681.69;;;14.57;21.79
1926;BME280;964;42.606;23.588;2023-02-11T14:51:34;95685.38;;;14.21;23.01
1926;BME280;964;42.606;23.588;2023-02-11T14:54:11;95689.59;;;14.22;22.13
1926;BME280;964;42.606;23.588;2023-02-11T14:56:41;95688.47;;;14.08;22.51
1926;BME280;964;42.606;23.588;2023-02-11T14:59:15;95694.59;;;13.65;22.80
1926;BME280;964;42.606;23.588;2023-02-11T15:01:45;95682.88;;;14.76;22.17
1926;BME280;964;42.606;23.588;2023-02-11T15:04:26;95677.94;;;14.43;22.44
1926;BME280;964;42.606;23.588;2023-02-11T15:06:54;95681.69;;;14.10;22.18
1926;BME280;964;42.606;23.588;2023-02-11T15:09:27;95682.97;;;14.01;23.29
1926;BME280;964;42.606;23.588;2023-02-11T15:11:57;95683.63;;;13.82;22.96
1926;BME280;964;42.606;23.588;2023-02-11T15:14:26;95675.13;;;13.92;22.77
1926;BME280;964;42.606;23.588;2023-02-11T15:16:55;95675.25;;;14.11;23.41
1926;BME280;964;42.606;23.588;2023-02-11T15:19:26;95678.84;;;13.88;23.00
1926;BME280;964;42.606;23.588;2023-02-11T15:21:53;95672.78;;;14.50;23.03
1926;BME280;964;42.606;23.588;2023-02-11T15:24:23;95670.09;;;15.00;22.42
1926;BME280;964;42.606;23.588;2023-02-11T15:26:58;95655.94;;;15.73;21.75
1926;BME280;964;42.606;23.588;2023-02-11T15:29:25;95657.38;;;15.13;21.72
1926;BME280;964;42.606;23.588;2023-02-11T15:32:04;95663.47;;;14.75;22.56
1926;BME280;964;42.606;23.588;2023-02-11T15:34:32;95657.72;;;14.92;21.87
1926;BME280;964;42.606;23.588;2023-02-11T15:36:59;95655.88;;;14.77;22.24
1926;BME280;964;42.606;23.588;2023-02-11T15:39:32;95651.25;;;14.58;22.30
1926;BME280;964;42.606;23.588;2023-02-11T15:42:18;95659.22;;;13.37;22.99
1926;BME280;964;42.606;23.588;2023-02-11T15:44:46;95665.44;;;12.89;23.68
1926;BME280;964;42.606;23.588;2023-02-11T15:47:18;95660.88;;;12.89;24.52
1926;BME280;964;42.606;23.588;2023-02-11T15:49:47;95652.03;;;13.53;23.70
1926;BME280;964;42.606;23.588;2023-02-11T15:52:21;95653.34;;;14.02;23.14
1926;BME280;964;42.606;23.588;2023-02-11T15:54:49;95651.00;;;14.01;24.07
1926;BME280;964;42.606;23.588;2023-02-11T15:57:16;95656.94;;;13.94;24.53
1926;BME280;964;42.606;23.588;2023-02-11T15:59:46;95651.25;;;13.80;24.08
1926;BME280;964;42.606;23.588;2023-02-11T16:02:16;95653.69;;;13.57;24.81
1926;BME280;964;42.606;23.588;2023-02-11T16:04:51;95654.25;;;13.23;24.46
1926;BME280;964;42.606;23.588;2023-02-11T16:07:41;95653.03;;;13.33;24.26
1926;BME280;964;42.606;23.588;2023-02-11T16:10:26;95656.41;;;13.17;23.94
1926;BME280;964;42.606;23.588;2023-02-11T16:13:16;95645.84;;;13.49;24.24
1926;BME280;964;42.606;23.588;2023-02-11T16:15:47;95655.28;;;13.18;23.51
1926;BME280;964;42.606;23.588;2023-02-11T17:19:13;95683.66;;;6.71;36.62
1926;BME280;964;42.606;23.588;2023-02-11T17:21:41;95674.47;;;7.71;34.03
1926;BME280;964;42.606;23.588;2023-02-11T17:24:08;95677.63;;;7.81;32.88
1926;BME280;964;42.606;23.588;2023-02-11T17:26:35;95669.50;;;8.40;32.21
1926;BME280;964;42.606;23.588;2023-02-11T17:29:03;95674.28;;;7.98;32.41
1926;BME280;964;42.606;23.588;2023-02-11T17:31:30;95662.44;;;8.26;31.76
1926;BME280;964;42.606;23.588;2023-02-11T17:33:57;95658.53;;;8.72;31.53
1926;BME280;964;42.606;23.588;2023-02-11T17:36:26;95665.84;;;8.92;30.70
1926;BME280;964;42.606;23.588;2023-02-11T17:38:55;95653.25;;;9.15;29.79
1926;BME280;964;42.606;23.588;2023-02-11T17:41:23;95663.66;;;8.77;30.58
1926;BME280;964;42.606;23.588;2023-02-11T17:43:50;95665.69;;;8.80;30.77
1926;BME280;964;42.606;23.588;2023-02-11T17:46:16;95677.97;;;8.28;31.28
1926;BME280;964;42.606;23.588;2023-02-11T17:48:43;95680.09;;;8.48;30.54
1926;BME280;964;42.606;23.588;2023-02-11T17:51:21;95683.44;;;8.31;30.72
1926;BME280;964;42.606;23.588;2023-02-11T17:53:49;95674.97;;;8.52;30.80
1926;BME280;964;42.606;23.588;2023-02-11T17:56:16;95679.66;;;8.63;30.51
1926;BME280;964;42.606;23.588;2023-02-11T17:58:43;95678.81;;;8.46;30.82
1926;BME280;964;42.606;23.588;2023-02-11T18:01:10;95685.66;;;8.47;31.00
1926;BME280;964;42.606;23.588;2023-02-11T18:03:37;95680.59;;;8.93;29.82
1926;BME280;964;42.606;23.588;2023-02-11T18:06:05;95682.72;;;8.57;30.71
1926;BME280;964;42.606;23.588;2023-02-11T18:08:33;95694.63;;;8.28;31.03
1926;BME280;964;42.606;23.588;2023-02-11T18:11:01;95699.34;;;8.49;30.69
1926;BME280;964;42.606;23.588;2023-02-11T18:13:29;95696.63;;;7.92;31.46
1926;BME280;964;42.606;23.588;2023-02-11T18:16:00;95710.50;;;7.75;31.64
1926;BME280;964;42.606;23.588;2023-02-11T18:18:27;95701.31;;;8.34;31.85
1926;BME280;964;42.606;23.588;2023-02-11T18:20:58;95704.06;;;7.90;32.25
1926;BME280;964;42.606;23.588;2023-02-11T18:23:25;95692.69;;;8.51;31.64
1926;BME280;964;42.606;23.588;2023-02-11T18:25:52;95697.06;;;8.25;31.63
1926;BME280;964;42.606;23.588;2023-02-11T18:28:20;95682.47;;;8.84;30.70
1926;BME280;964;42.606;23.588;2023-02-11T18:30:47;95690.94;;;8.47;30.95
1926;BME280;964;42.606;23.588;2023-02-11T18:33:14;95687.94;;;8.31;30.64
1926;BME280;964;42.606;23.588;2023-02-11T18:35:41;95677.63;;;8.52;31.67
1926;BME280;964;42.606;23.588;2023-02-11T18:38:07;95678.06;;;8.45;30.80
1926;BME280;964;42.606;23.588;2023-02-11T18:40:38;95667.38;;;8.76;31.03
1926;BME280;964;42.606;23.588;2023-02-11T18:43:05;95672.22;;;8.82;30.84
1926;BME280;964;42.606;23.588;2023-02-11T18:45:33;95670.16;;;8.71;30.68
1926;BME280;964;42.606;23.588;2023-02-11T18:47:59;95666.84;;;8.40;31.27
1926;BME280;964;42.606;23.588;2023-02-11T19:07:38;95687.50;;;4.43;39.61
1926;BME280;964;42.606;23.588;2023-02-11T19:10:06;95674.94;;;5.15;37.05
1926;BME280;964;42.606;23.588;2023-02-11T19:12:33;95680.28;;;5.42;36.28
1926;BME280;964;42.606;23.588;2023-02-11T19:14:59;95674.84;;;5.53;35.97
1926;BME280;964;42.606;23.588;2023-02-11T19:17:26;95671.38;;;5.57;36.01
1926;BME280;964;42.606;23.588;2023-02-11T19:19:56;95677.28;;;5.95;34.75
1926;BME280;964;42.606;23.588;2023-02-11T19:22:22;95666.94;;;5.85;35.12
1926;BME280;964;42.606;23.588;2023-02-11T19:24:50;95666.28;;;6.07;34.80